createdAt,value
2024-03-05T00:00:07.887Z,1276.2910
2024-03-05T00:00:18.973Z,1275.0720
2024-03-05T00:00:30.037Z,1282.4210
2024-03-05T00:00:41.282Z,1288.6100
2024-03-05T00:00:52.394Z,1284.8890
2024-03-05T00:01:03.647Z,1281.1899
2024-03-05T00:01:14.977Z,1283.6541
2024-03-05T00:01:26.161Z,1278.7360
2024-03-05T00:01:37.281Z,1281.1899
2024-03-05T00:01:48.342Z,1276.2910
2024-03-05T00:01:59.461Z,1283.6541
2024-03-05T00:02:10.545Z,1281.1899
2024-03-05T00:02:21.558Z,1291.1030
2024-03-05T00:02:32.607Z,1293.6050
2024-03-05T00:02:43.657Z,1291.1030
2024-03-05T00:02:54.704Z,1279.9620
2024-03-05T00:03:05.752Z,1277.5120
2024-03-05T00:03:16.807Z,1287.3669
2024-03-05T00:03:28.050Z,1282.4210
2024-03-05T00:03:39.049Z,1281.1899
2024-03-05T00:03:50.082Z,1281.1899
2024-03-05T00:04:01.144Z,1278.7360
2024-03-05T00:04:12.234Z,1279.9620
2024-03-05T00:04:23.358Z,1281.1899
2024-03-05T00:04:34.417Z,1283.6541
2024-03-05T00:04:45.457Z,1281.1899
2024-03-05T00:04:56.563Z,1287.3669
2024-03-05T00:05:07.659Z,1291.1030
2024-03-05T00:05:18.708Z,1283.6541
2024-03-05T00:05:29.772Z,1279.9620
2024-03-05T00:05:40.801Z,1286.1270
2024-03-05T00:05:51.856Z,1278.7360
2024-03-05T00:06:02.963Z,1284.8890
2024-03-05T00:06:14.012Z,1281.1899
2024-03-05T00:06:25.039Z,1283.6541
2024-03-05T00:06:36.083Z,1283.6541
2024-03-05T00:06:47.154Z,1287.3669
2024-03-05T00:06:58.263Z,1288.6100
2024-03-05T00:07:09.313Z,1276.2910
2024-03-05T00:07:20.417Z,1282.4210
2024-03-05T00:07:31.479Z,1288.6100
2024-03-05T00:07:42.596Z,1286.1270
2024-03-05T00:07:53.765Z,1284.8890
2024-03-05T00:08:04.932Z,1283.6541
2024-03-05T00:08:16.060Z,1286.1270
2024-03-05T00:08:27.103Z,1283.6541
2024-03-05T00:08:38.172Z,1283.6541
2024-03-05T00:08:49.166Z,1287.3669
2024-03-05T00:09:00.229Z,1277.5120
2024-03-05T00:09:11.424Z,1293.6050
2024-03-05T00:09:22.490Z,1281.1899
2024-03-05T00:09:33.574Z,1291.1030
2024-03-05T00:09:44.609Z,1292.3521
2024-03-05T00:09:55.654Z,1288.6100
2024-03-05T00:10:06.756Z,1288.6100
2024-03-05T00:10:17.856Z,1286.1270
2024-03-05T00:10:29.022Z,1291.1030
2024-03-05T00:10:40.199Z,1292.3521
2024-03-05T00:10:51.390Z,1291.1030
2024-03-05T00:11:02.589Z,1297.3760
2024-03-05T00:11:13.810Z,1284.8890
2024-03-05T00:11:25.265Z,1284.8890
2024-03-05T00:11:36.360Z,1283.6541
2024-03-05T00:11:47.429Z,1286.1270
2024-03-05T00:11:58.520Z,1292.3521
2024-03-05T00:12:09.606Z,1287.3669
2024-03-05T00:12:20.664Z,1281.1899
2024-03-05T00:12:31.722Z,1294.8590
2024-03-05T00:12:42.765Z,1283.6541
2024-03-05T00:12:53.823Z,1284.8890
2024-03-05T00:13:04.850Z,1281.1899
2024-03-05T00:13:15.993Z,1286.1270
2024-03-05T00:13:27.070Z,1281.1899
2024-03-05T00:13:38.176Z,1288.6100
2024-03-05T00:13:49.272Z,1283.6541
2024-03-05T00:14:00.472Z,1283.6541
2024-03-05T00:14:11.525Z,1283.6541
2024-03-05T00:14:22.563Z,1291.1030
2024-03-05T00:14:33.598Z,1296.1169
2024-03-05T00:14:44.703Z,1291.1030
2024-03-05T00:14:55.759Z,1284.8890
2024-03-05T00:15:06.837Z,1287.3669
2024-03-05T00:15:17.901Z,1293.6050
2024-03-05T00:15:28.987Z,1293.6050
2024-03-05T00:15:40.027Z,1283.6541
2024-03-05T00:15:51.091Z,1288.6100
2024-03-05T00:16:02.147Z,1283.6541
2024-03-05T00:16:13.243Z,1292.3521
2024-03-05T00:16:24.395Z,1291.1030
2024-03-05T00:16:35.543Z,1289.8550
2024-03-05T00:16:46.675Z,1286.1270
2024-03-05T00:16:57.834Z,1287.3669
2024-03-05T00:17:08.900Z,1303.7111
2024-03-05T00:17:19.955Z,1291.1030
2024-03-05T00:17:31.046Z,1288.6100
2024-03-05T00:17:42.133Z,1292.3521
2024-03-05T00:17:53.198Z,1288.6100
2024-03-05T00:18:04.277Z,1291.1030
2024-03-05T00:18:15.318Z,1296.1169
2024-03-05T00:18:26.383Z,1292.3521
2024-03-05T00:18:37.468Z,1286.1270
2024-03-05T00:18:48.503Z,1302.4390
2024-03-05T00:18:59.570Z,1288.6100
2024-03-05T00:19:10.716Z,1286.1270
2024-03-05T00:19:21.843Z,1293.6050
2024-03-05T00:19:32.915Z,1293.6050
2024-03-05T00:19:43.968Z,1288.6100
2024-03-05T00:19:55.058Z,1288.6100
2024-03-05T00:20:06.189Z,1296.1169
2024-03-05T00:20:17.306Z,1301.1700
2024-03-05T00:20:28.329Z,1299.9030
2024-03-05T00:20:39.413Z,1292.3521
2024-03-05T00:20:50.467Z,1288.6100
2024-03-05T00:21:01.487Z,1297.3760
2024-03-05T00:21:12.542Z,1287.3669
2024-03-05T00:21:23.575Z,1298.6379
2024-03-05T00:21:34.695Z,1292.3521
2024-03-05T00:21:45.753Z,1288.6100
2024-03-05T00:21:56.805Z,1287.3669
2024-03-05T00:22:07.867Z,1292.3521
2024-03-05T00:22:18.962Z,1284.8890
2024-03-05T00:22:30.096Z,1291.1030
2024-03-05T00:22:41.207Z,1288.6100
2024-03-05T00:22:52.361Z,1289.8550
2024-03-05T00:23:03.508Z,1291.1030
2024-03-05T00:23:14.542Z,1291.1030
2024-03-05T00:23:25.595Z,1291.1030
2024-03-05T00:23:36.634Z,1288.6100
2024-03-05T00:23:47.727Z,1291.1030
2024-03-05T00:23:58.736Z,1293.6050
2024-03-05T00:24:09.821Z,1291.1030
2024-03-05T00:24:20.855Z,1289.8550
2024-03-05T00:24:31.933Z,1291.1030
2024-03-05T00:24:42.994Z,1293.6050
2024-03-05T00:24:54.004Z,1294.8590
2024-03-05T00:25:05.118Z,1299.9030
2024-03-05T00:25:16.309Z,1296.1169
2024-03-05T00:25:27.759Z,1292.3521
2024-03-05T00:25:38.908Z,1292.3521
2024-03-05T00:25:50.053Z,1294.8590
2024-03-05T00:26:01.138Z,1293.6050
2024-03-05T00:26:12.208Z,1296.1169
2024-03-05T00:26:23.272Z,1293.6050
2024-03-05T00:26:34.342Z,1291.1030
2024-03-05T00:26:45.384Z,1307.5420
2024-03-05T00:26:56.487Z,1296.1169
2024-03-05T00:27:07.605Z,1293.6050
2024-03-05T00:27:18.623Z,1296.1169
2024-03-05T00:27:29.691Z,1311.3950
2024-03-05T00:27:40.745Z,1292.3521
2024-03-05T00:27:51.811Z,1301.1700
2024-03-05T00:28:02.888Z,1283.6541
2024-03-05T00:28:13.944Z,1293.6050
2024-03-05T00:28:24.992Z,1303.7111
2024-03-05T00:28:36.077Z,1296.1169
2024-03-05T00:28:47.244Z,1288.6100
2024-03-05T00:28:58.379Z,1293.6050
2024-03-05T00:29:09.445Z,1291.1030
2024-03-05T00:29:20.466Z,1294.8590
2024-03-05T00:29:31.527Z,1304.9850
2024-03-05T00:29:42.581Z,1288.6100
2024-03-05T00:29:53.603Z,1298.6379
2024-03-05T00:30:04.690Z,1293.6050
2024-03-05T00:30:15.734Z,1298.6379
2024-03-05T00:30:26.796Z,1304.9850
2024-03-05T00:30:37.844Z,1296.1169
2024-03-05T00:30:48.905Z,1297.3760
2024-03-05T00:30:59.929Z,1296.1169
2024-03-05T00:31:11.139Z,1297.3760
2024-03-05T00:31:22.292Z,1293.6050
2024-03-05T00:31:33.338Z,1298.6379
2024-03-05T00:31:44.484Z,1299.9030
2024-03-05T00:31:55.542Z,1296.1169
2024-03-05T00:32:06.618Z,1298.6379
2024-03-05T00:32:17.671Z,1299.9030
2024-03-05T00:32:28.732Z,1298.6379
2024-03-05T00:32:39.822Z,1301.1700
2024-03-05T00:32:50.925Z,1298.6379
2024-03-05T00:33:02.059Z,1286.1270
2024-03-05T00:33:13.266Z,1298.6379
2024-03-05T00:33:24.301Z,1283.6541
2024-03-05T00:33:35.353Z,1294.8590
2024-03-05T00:33:46.417Z,1298.6379
2024-03-05T00:33:57.475Z,1299.9030
2024-03-05T00:34:08.531Z,1298.6379
2024-03-05T00:34:19.612Z,1301.1700
2024-03-05T00:34:30.685Z,1301.1700
2024-03-05T00:34:41.747Z,1289.8550
2024-03-05T00:34:52.807Z,1299.9030
2024-03-05T00:35:03.896Z,1301.1700
2024-03-05T00:35:14.947Z,1297.3760
2024-03-05T00:35:26.054Z,1298.6379
2024-03-05T00:35:37.103Z,1301.1700
2024-03-05T00:35:48.132Z,1304.9850
2024-03-05T00:35:59.222Z,1301.1700
2024-03-05T00:36:10.257Z,1298.6379
2024-03-05T00:36:21.292Z,1299.9030
2024-03-05T00:36:32.337Z,1299.9030
2024-03-05T00:36:43.401Z,1301.1700
2024-03-05T00:36:54.508Z,1299.9030
2024-03-05T00:37:05.529Z,1311.3950
2024-03-05T00:37:16.662Z,1302.4390
2024-03-05T00:37:27.777Z,1299.9030
2024-03-05T00:37:39.081Z,1306.2620
2024-03-05T00:37:50.454Z,1298.6379
2024-03-05T00:38:01.612Z,1306.2620
2024-03-05T00:38:18.591Z,1301.1700
2024-03-05T00:38:33.689Z,1282.4210
2024-03-05T00:38:45.358Z,1296.1169
2024-03-05T00:38:56.419Z,1289.8550
2024-03-05T00:39:07.464Z,1288.6100
2024-03-05T00:39:18.732Z,1292.3521
2024-03-05T00:39:29.773Z,1294.8590
2024-03-05T00:39:40.845Z,1293.6050
2024-03-05T00:39:51.919Z,1296.1169
2024-03-05T00:40:02.989Z,1293.6050
2024-03-05T00:40:14.070Z,1296.1169
2024-03-05T00:40:25.138Z,1296.1169
2024-03-05T00:40:36.277Z,1293.6050
2024-03-05T00:40:47.410Z,1299.9030
2024-03-05T00:40:58.459Z,1296.1169
2024-03-05T00:41:09.483Z,1296.1169
2024-03-05T00:41:20.593Z,1301.1700
2024-03-05T00:41:31.630Z,1293.6050
2024-03-05T00:41:42.709Z,1294.8590
2024-03-05T00:41:53.737Z,1296.1169
2024-03-05T00:42:04.833Z,1306.2620
2024-03-05T00:42:15.878Z,1297.3760
2024-03-05T00:42:26.976Z,1297.3760
2024-03-05T00:42:38.056Z,1296.1169
2024-03-05T00:42:49.082Z,1289.8550
2024-03-05T00:43:00.182Z,1302.4390
2024-03-05T00:43:11.291Z,1296.1169
2024-03-05T00:43:22.415Z,1301.1700
2024-03-05T00:43:33.462Z,1298.6379
2024-03-05T00:43:44.570Z,1303.7111
2024-03-05T00:43:55.630Z,1299.9030
2024-03-05T00:44:06.702Z,1292.3521
2024-03-05T00:44:17.778Z,1306.2620
2024-03-05T00:44:28.858Z,1302.4390
2024-03-05T00:44:39.937Z,1301.1700
2024-03-05T00:44:50.987Z,1302.4390
2024-03-05T00:45:02.084Z,1299.9030
2024-03-05T00:45:13.129Z,1301.1700
2024-03-05T00:45:24.206Z,1293.6050
2024-03-05T00:45:35.251Z,1303.7111
2024-03-05T00:45:46.287Z,1294.8590
2024-03-05T00:45:57.328Z,1301.1700
2024-03-05T00:46:08.390Z,1298.6379
2024-03-05T00:46:19.483Z,1302.4390
2024-03-05T00:46:30.560Z,1298.6379
2024-03-05T00:46:41.641Z,1308.8240
2024-03-05T00:46:52.776Z,1297.3760
2024-03-05T00:47:03.898Z,1298.6379
2024-03-05T00:47:14.954Z,1303.7111
2024-03-05T00:47:26.069Z,1301.1700
2024-03-05T00:47:37.626Z,1306.2620
2024-03-05T00:47:48.836Z,1302.4390
2024-03-05T00:47:59.936Z,1294.8590
2024-03-05T00:48:11.140Z,1307.5420
2024-03-05T00:48:22.218Z,1299.9030
2024-03-05T00:48:33.273Z,1298.6379
2024-03-05T00:48:44.330Z,1313.9760
2024-03-05T00:48:55.379Z,1299.9030
2024-03-05T00:49:06.423Z,1306.2620
2024-03-05T00:49:17.497Z,1301.1700
2024-03-05T00:49:28.549Z,1301.1700
2024-03-05T00:49:39.641Z,1313.9760
2024-03-05T00:49:50.767Z,1303.7111
2024-03-05T00:50:01.892Z,1302.4390
2024-03-05T00:50:12.943Z,1298.6379
2024-03-05T00:50:24.000Z,1301.1700
2024-03-05T00:50:35.063Z,1304.9850
2024-03-05T00:50:46.175Z,1311.3950
2024-03-05T00:50:57.184Z,1298.6379
2024-03-05T00:51:08.207Z,1303.7111
2024-03-05T00:51:19.256Z,1315.2710
2024-03-05T00:51:30.342Z,1301.1700
2024-03-05T00:51:41.412Z,1306.2620
2024-03-05T00:51:52.458Z,1308.8240
2024-03-05T00:52:03.561Z,1311.3950
2024-03-05T00:52:14.717Z,1308.8240
2024-03-05T00:52:25.845Z,1304.9850
2024-03-05T00:52:36.934Z,1298.6379
2024-03-05T00:52:48.042Z,1302.4390
2024-03-05T00:52:59.136Z,1302.4390
2024-03-05T00:53:10.163Z,1293.6050
2024-03-05T00:53:21.221Z,1303.7111
2024-03-05T00:53:32.294Z,1299.9030
2024-03-05T00:53:43.360Z,1302.4390
2024-03-05T00:53:54.445Z,1294.8590
2024-03-05T00:54:05.524Z,1299.9030
2024-03-05T00:54:16.545Z,1303.7111
2024-03-05T00:54:27.598Z,1298.6379
2024-03-05T00:54:38.664Z,1303.7111
2024-03-05T00:54:49.723Z,1296.1169
2024-03-05T00:55:00.910Z,1301.1700
2024-03-05T00:55:12.425Z,1301.1700
2024-03-05T00:55:23.548Z,1302.4390
2024-03-05T00:55:34.740Z,1301.1700
2024-03-05T00:55:45.848Z,1308.8240
2024-03-05T00:55:57.037Z,1299.9030
2024-03-05T00:56:08.165Z,1304.9850
2024-03-05T00:56:19.211Z,1296.1169
2024-03-05T00:56:30.287Z,1301.1700
2024-03-05T00:56:41.325Z,1312.6840
2024-03-05T00:56:52.376Z,1296.1169
2024-03-05T00:57:03.426Z,1319.1700
2024-03-05T00:57:14.478Z,1296.1169
2024-03-05T00:57:25.585Z,1302.4390
2024-03-05T00:57:36.649Z,1299.9030
2024-03-05T00:57:47.717Z,1306.2620
2024-03-05T00:57:58.911Z,1292.3521
2024-03-05T00:58:09.946Z,1302.4390
2024-03-05T00:58:21.037Z,1303.7111
2024-03-05T00:58:32.097Z,1298.6379
2024-03-05T00:58:43.174Z,1301.1700
2024-03-05T00:58:54.322Z,1301.1700
2024-03-05T00:59:05.463Z,1296.1169
2024-03-05T00:59:16.549Z,1301.1700
2024-03-05T00:59:27.633Z,1301.1700
2024-03-05T00:59:38.693Z,1306.2620
2024-03-05T00:59:50.091Z,1301.1700
2024-03-05T01:00:01.291Z,1303.7111
2024-03-05T01:00:12.330Z,1312.6840
2024-03-05T01:00:23.357Z,1294.8590
2024-03-05T01:00:34.433Z,1299.9030
2024-03-05T01:00:45.477Z,1303.7111
2024-03-05T01:00:56.528Z,1301.1700
2024-03-05T01:01:07.618Z,1298.6379
2024-03-05T01:01:18.723Z,1298.6379
2024-03-05T01:01:29.930Z,1307.5420
2024-03-05T01:01:41.069Z,1308.8240
2024-03-05T01:01:52.250Z,1308.8240
2024-03-05T01:02:03.490Z,1307.5420
2024-03-05T01:02:14.819Z,1303.7111
2024-03-05T01:02:25.946Z,1307.5420
2024-03-05T01:02:37.186Z,1306.2620
2024-03-05T01:02:48.229Z,1302.4390
2024-03-05T01:02:59.293Z,1313.9760
2024-03-05T01:03:10.313Z,1296.1169
2024-03-05T01:03:21.348Z,1304.9850
2024-03-05T01:03:32.399Z,1313.9760
2024-03-05T01:03:43.455Z,1312.6840
2024-03-05T01:03:54.515Z,1306.2620
2024-03-05T01:04:05.584Z,1302.4390
2024-03-05T01:04:16.686Z,1303.7111
2024-03-05T01:04:27.745Z,1298.6379
2024-03-05T01:04:38.808Z,1302.4390
2024-03-05T01:04:49.968Z,1307.5420
2024-03-05T01:05:01.187Z,1308.8240
2024-03-05T01:05:12.252Z,1303.7111
2024-03-05T01:05:23.321Z,1302.4390
2024-03-05T01:05:34.386Z,1304.9850
2024-03-05T01:05:45.435Z,1302.4390
2024-03-05T01:05:56.488Z,1311.3950
2024-03-05T01:06:07.535Z,1306.2620
2024-03-05T01:06:18.550Z,1301.1700
2024-03-05T01:06:29.609Z,1307.5420
2024-03-05T01:06:40.662Z,1299.9030
2024-03-05T01:06:51.709Z,1299.9030
2024-03-05T01:07:02.769Z,1303.7111
2024-03-05T01:07:13.861Z,1302.4390
2024-03-05T01:07:25.037Z,1310.1080
2024-03-05T01:07:36.123Z,1311.3950
2024-03-05T01:07:47.256Z,1303.7111
2024-03-05T01:07:58.364Z,1301.1700
2024-03-05T01:08:09.442Z,1302.4390
2024-03-05T01:08:20.482Z,1301.1700
2024-03-05T01:08:31.523Z,1301.1700
2024-03-05T01:08:42.579Z,1306.2620
2024-03-05T01:08:53.644Z,1303.7111
2024-03-05T01:09:04.682Z,1297.3760
2024-03-05T01:09:15.767Z,1304.9850
2024-03-05T01:09:26.802Z,1299.9030
2024-03-05T01:09:37.861Z,1302.4390
2024-03-05T01:09:48.928Z,1303.7111
2024-03-05T01:09:59.959Z,1303.7111
2024-03-05T01:10:11.199Z,1312.6840
2024-03-05T01:10:22.339Z,1306.2620
2024-03-05T01:10:33.400Z,1308.8240
2024-03-05T01:10:44.532Z,1299.9030
2024-03-05T01:10:55.756Z,1308.8240
2024-03-05T01:11:06.889Z,1310.1080
2024-03-05T01:11:17.987Z,1301.1700
2024-03-05T01:11:29.086Z,1307.5420
2024-03-05T01:11:40.251Z,1298.6379
2024-03-05T01:11:51.361Z,1299.9030
2024-03-05T01:12:02.423Z,1298.6379
2024-03-05T01:12:13.443Z,1303.7111
2024-03-05T01:12:24.494Z,1311.3950
2024-03-05T01:12:35.529Z,1306.2620
2024-03-05T01:12:46.580Z,1302.4390
2024-03-05T01:12:57.640Z,1317.8680
2024-03-05T01:13:08.709Z,1298.6379
2024-03-05T01:13:19.819Z,1296.1169
2024-03-05T01:13:30.898Z,1301.1700
2024-03-05T01:13:41.988Z,1303.7111
2024-03-05T01:13:53.101Z,1307.5420
2024-03-05T01:14:04.201Z,1301.1700
2024-03-05T01:14:15.233Z,1306.2620
2024-03-05T01:14:26.282Z,1301.1700
2024-03-05T01:14:37.333Z,1304.9850
2024-03-05T01:14:48.362Z,1303.7111
2024-03-05T01:14:59.373Z,1306.2620
2024-03-05T01:15:10.441Z,1301.1700
2024-03-05T01:15:21.487Z,1303.7111
2024-03-05T01:15:32.535Z,1306.2620
2024-03-05T01:15:43.597Z,1293.6050
2024-03-05T01:15:54.660Z,1299.9030
2024-03-05T01:16:05.711Z,1303.7111
2024-03-05T01:16:16.848Z,1310.1080
2024-03-05T01:16:27.923Z,1302.4390
2024-03-05T01:16:39.029Z,1303.7111
2024-03-05T01:16:50.151Z,1316.5680
2024-03-05T01:17:01.271Z,1301.1700
2024-03-05T01:17:12.329Z,1303.7111
2024-03-05T01:17:23.387Z,1307.5420
2024-03-05T01:17:34.435Z,1302.4390
2024-03-05T01:17:45.461Z,1306.2620
2024-03-05T01:17:56.516Z,1313.9760
2024-03-05T01:18:07.638Z,1311.3950
2024-03-05T01:18:18.765Z,1313.9760
2024-03-05T01:18:29.814Z,1304.9850
2024-03-05T01:18:40.883Z,1313.9760
2024-03-05T01:18:51.904Z,1307.5420
2024-03-05T01:19:02.985Z,1311.3950
2024-03-05T01:19:14.066Z,1302.4390
2024-03-05T01:19:25.121Z,1307.5420
2024-03-05T01:19:36.246Z,1302.4390
2024-03-05T01:19:47.281Z,1304.9850
2024-03-05T01:19:58.485Z,1307.5420
2024-03-05T01:20:09.549Z,1301.1700
2024-03-05T01:20:20.614Z,1308.8240
2024-03-05T01:20:31.714Z,1308.8240
2024-03-05T01:20:42.771Z,1308.8240
2024-03-05T01:20:53.823Z,1316.5680
2024-03-05T01:21:04.864Z,1306.2620
2024-03-05T01:21:15.931Z,1298.6379
2024-03-05T01:21:26.980Z,1302.4390
2024-03-05T01:21:38.005Z,1301.1700
2024-03-05T01:21:49.081Z,1304.9850
2024-03-05T01:22:00.132Z,1308.8240
2024-03-05T01:22:11.181Z,1306.2620
2024-03-05T01:22:22.513Z,1303.7111
2024-03-05T01:22:33.617Z,1308.8240
2024-03-05T01:22:44.752Z,1306.2620
2024-03-05T01:22:55.911Z,1306.2620
2024-03-05T01:23:07.025Z,1304.9850
2024-03-05T01:23:18.201Z,1306.2620
2024-03-05T01:23:29.262Z,1307.5420
2024-03-05T01:23:40.321Z,1301.1700
2024-03-05T01:23:51.364Z,1312.6840
2024-03-05T01:24:02.426Z,1294.8590
2024-03-05T01:24:13.472Z,1306.2620
2024-03-05T01:24:24.625Z,1308.8240
2024-03-05T01:24:35.649Z,1306.2620
2024-03-05T01:24:46.690Z,1306.2620
2024-03-05T01:24:57.756Z,1301.1700
2024-03-05T01:25:08.784Z,1296.1169
2024-03-05T01:25:19.885Z,1303.7111
2024-03-05T01:25:31.021Z,1311.3950
2024-03-05T01:25:42.105Z,1311.3950
2024-03-05T01:25:53.240Z,1301.1700
2024-03-05T01:26:04.514Z,1320.4750
2024-03-05T01:26:15.693Z,1303.7111
2024-03-05T01:26:26.772Z,1307.5420
2024-03-05T01:26:37.795Z,1301.1700
2024-03-05T01:26:48.846Z,1302.4390
2024-03-05T01:26:59.924Z,1306.2620
2024-03-05T01:27:10.976Z,1304.9850
2024-03-05T01:27:22.036Z,1303.7111
2024-03-05T01:27:33.111Z,1303.7111
2024-03-05T01:27:44.154Z,1294.8590
2024-03-05T01:27:55.204Z,1307.5420
2024-03-05T01:28:06.282Z,1303.7111
2024-03-05T01:28:17.340Z,1306.2620
2024-03-05T01:28:28.432Z,1312.6840
2024-03-05T01:28:39.519Z,1302.4390
2024-03-05T01:28:50.625Z,1307.5420
2024-03-05T01:29:01.755Z,1303.7111
2024-03-05T01:29:12.822Z,1311.3950
2024-03-05T01:29:23.888Z,1299.9030
2024-03-05T01:29:34.940Z,1303.7111
2024-03-05T01:29:46.000Z,1302.4390
2024-03-05T01:29:57.048Z,1304.9850
2024-03-05T01:30:09.815Z,1303.7111
2024-03-05T01:30:21.132Z,1306.2620
2024-03-05T01:30:32.165Z,1306.2620
2024-03-05T01:30:43.211Z,1306.2620
2024-03-05T01:30:54.258Z,1304.9850
2024-03-05T01:31:05.395Z,1306.2620
2024-03-05T01:31:16.490Z,1311.3950
2024-03-05T01:31:27.638Z,1306.2620
2024-03-05T01:31:38.784Z,1301.1700
2024-03-05T01:31:49.920Z,1307.5420
2024-03-05T01:32:01.654Z,1304.9850
2024-03-05T01:32:12.806Z,1308.8240
2024-03-05T01:32:23.872Z,1308.8240
2024-03-05T01:32:34.957Z,1303.7111
2024-03-05T01:32:46.066Z,1317.8680
2024-03-05T01:32:57.132Z,1306.2620
2024-03-05T01:33:08.192Z,1312.6840
2024-03-05T01:33:19.208Z,1303.7111
2024-03-05T01:33:30.273Z,1308.8240
2024-03-05T01:33:41.312Z,1306.2620
2024-03-05T01:33:52.411Z,1306.2620
2024-03-05T01:34:03.469Z,1308.8240
2024-03-05T01:34:14.544Z,1306.2620
2024-03-05T01:34:25.642Z,1306.2620
2024-03-05T01:34:36.766Z,1307.5420
2024-03-05T01:34:47.960Z,1303.7111
2024-03-05T01:34:59.122Z,1311.3950
2024-03-05T01:35:10.155Z,1306.2620
2024-03-05T01:35:21.192Z,1306.2620
2024-03-05T01:35:32.239Z,1306.2620
2024-03-05T01:35:43.266Z,1311.3950
2024-03-05T01:35:54.365Z,1302.4390
2024-03-05T01:36:05.413Z,1308.8240
2024-03-05T01:36:16.603Z,1306.2620
2024-03-05T01:36:27.689Z,1307.5420
2024-03-05T01:36:38.708Z,1319.1700
2024-03-05T01:36:49.744Z,1315.2710
2024-03-05T01:37:00.802Z,1302.4390
2024-03-05T01:37:11.874Z,1313.9760
2024-03-05T01:37:22.987Z,1308.8240
2024-03-05T01:37:34.124Z,1303.7111
2024-03-05T01:37:45.310Z,1310.1080
2024-03-05T01:37:56.399Z,1304.9850
2024-03-05T01:38:07.453Z,1304.9850
2024-03-05T01:38:18.500Z,1312.6840
2024-03-05T01:38:29.533Z,1316.5680
2024-03-05T01:38:40.571Z,1296.1169
2024-03-05T01:38:51.630Z,1310.1080
2024-03-05T01:39:02.658Z,1296.1169
2024-03-05T01:39:13.710Z,1308.8240
2024-03-05T01:39:24.743Z,1320.4750
2024-03-05T01:39:35.818Z,1304.9850
2024-03-05T01:39:46.819Z,1306.2620
2024-03-05T01:39:57.868Z,1306.2620
2024-03-05T01:40:08.904Z,1308.8240
2024-03-05T01:40:20.003Z,1312.6840
2024-03-05T01:40:31.068Z,1311.3950
2024-03-05T01:40:42.103Z,1310.1080
2024-03-05T01:40:53.223Z,1315.2710
2024-03-05T01:41:04.324Z,1303.7111
2024-03-05T01:41:15.386Z,1313.9760
2024-03-05T01:41:26.450Z,1306.2620
2024-03-05T01:41:37.523Z,1311.3950
2024-03-05T01:41:48.596Z,1316.5680
2024-03-05T01:41:59.624Z,1308.8240
2024-03-05T01:42:10.666Z,1304.9850
2024-03-05T01:42:21.704Z,1306.2620
2024-03-05T01:42:32.762Z,1308.8240
2024-03-05T01:42:43.806Z,1306.2620
2024-03-05T01:42:54.899Z,1296.1169
2024-03-05T01:43:05.948Z,1315.2710
2024-03-05T01:43:17.030Z,1304.9850
2024-03-05T01:43:28.067Z,1306.2620
2024-03-05T01:43:39.195Z,1313.9760
2024-03-05T01:43:50.408Z,1307.5420
2024-03-05T01:44:01.518Z,1310.1080
2024-03-05T01:44:12.618Z,1307.5420
2024-03-05T01:44:23.674Z,1307.5420
2024-03-05T01:44:34.756Z,1306.2620
2024-03-05T01:44:45.812Z,1307.5420
2024-03-05T01:44:56.868Z,1307.5420
2024-03-05T01:45:07.944Z,1303.7111
2024-03-05T01:45:19.180Z,1311.3950
2024-03-05T01:45:30.194Z,1308.8240
2024-03-05T01:45:41.265Z,1301.1700
2024-03-05T01:45:52.281Z,1306.2620
2024-03-05T01:46:03.334Z,1307.5420
2024-03-05T01:46:14.387Z,1310.1080
2024-03-05T01:46:25.497Z,1308.8240
2024-03-05T01:46:36.667Z,1312.6840
2024-03-05T01:46:47.866Z,1308.8240
2024-03-05T01:46:58.997Z,1312.6840
2024-03-05T01:47:10.056Z,1308.8240
2024-03-05T01:47:21.075Z,1312.6840
2024-03-05T01:47:32.132Z,1303.7111
2024-03-05T01:47:43.196Z,1307.5420
2024-03-05T01:47:54.332Z,1310.1080
2024-03-05T01:48:05.484Z,1310.1080
2024-03-05T01:48:16.591Z,1308.8240
2024-03-05T01:48:27.616Z,1304.9850
2024-03-05T01:48:38.668Z,1312.6840
2024-03-05T01:48:49.730Z,1313.9760
2024-03-05T01:49:00.771Z,1304.9850
2024-03-05T01:49:11.909Z,1311.3950
2024-03-05T01:49:23.019Z,1306.2620
2024-03-05T01:49:34.060Z,1303.7111
2024-03-05T01:49:45.101Z,1311.3950
2024-03-05T01:49:56.350Z,1306.2620
2024-03-05T01:50:07.660Z,1304.9850
2024-03-05T01:50:18.710Z,1316.5680
2024-03-05T01:50:29.757Z,1308.8240
2024-03-05T01:50:40.788Z,1298.6379
2024-03-05T01:50:51.898Z,1313.9760
2024-03-05T01:51:02.922Z,1306.2620
2024-03-05T01:51:13.992Z,1310.1080
2024-03-05T01:51:25.033Z,1304.9850
2024-03-05T01:51:36.094Z,1308.8240
2024-03-05T01:51:47.151Z,1303.7111
2024-03-05T01:51:58.209Z,1303.7111
2024-03-05T01:52:09.264Z,1311.3950
2024-03-05T01:52:20.388Z,1308.8240
2024-03-05T01:52:31.482Z,1306.2620
2024-03-05T01:52:42.647Z,1308.8240
2024-03-05T01:52:53.745Z,1310.1080
2024-03-05T01:53:04.784Z,1319.1700
2024-03-05T01:53:15.958Z,1298.6379
2024-03-05T01:53:26.994Z,1298.6379
2024-03-05T01:53:38.045Z,1302.4390
2024-03-05T01:53:49.098Z,1316.5680
2024-03-05T01:54:00.152Z,1312.6840
2024-03-05T01:54:11.188Z,1306.2620
2024-03-05T01:54:22.223Z,1308.8240
2024-03-05T01:54:33.271Z,1308.8240
2024-03-05T01:54:44.341Z,1303.7111
2024-03-05T01:54:56.871Z,1302.4390
2024-03-05T01:55:09.414Z,1303.7111
2024-03-05T01:55:20.588Z,1303.7111
2024-03-05T01:55:31.693Z,1303.7111
2024-03-05T01:55:42.865Z,1308.8240
2024-03-05T01:55:54.108Z,1301.1700
2024-03-05T01:56:05.194Z,1301.1700
2024-03-05T01:56:16.329Z,1313.9760
2024-03-05T01:56:27.364Z,1304.9850
2024-03-05T01:56:38.384Z,1297.3760
2024-03-05T01:56:49.458Z,1308.8240
2024-03-05T01:57:00.506Z,1301.1700
2024-03-05T01:57:11.557Z,1304.9850
2024-03-05T01:57:22.628Z,1306.2620
2024-03-05T01:57:33.684Z,1307.5420
2024-03-05T01:57:44.747Z,1306.2620
2024-03-05T01:57:55.796Z,1298.6379
2024-03-05T01:58:06.848Z,1308.8240
2024-03-05T01:58:17.937Z,1304.9850
2024-03-05T01:58:29.004Z,1308.8240
2024-03-05T01:58:40.109Z,1306.2620
2024-03-05T01:58:51.264Z,1312.6840
2024-03-05T01:59:02.473Z,1308.8240
2024-03-05T01:59:13.614Z,1308.8240
2024-03-05T01:59:24.683Z,1302.4390
2024-03-05T01:59:35.739Z,1303.7111
2024-03-05T01:59:46.825Z,1303.7111
2024-03-05T01:59:58.351Z,1313.9760
2024-03-05T02:00:09.370Z,1307.5420
2024-03-05T02:00:20.432Z,1301.1700
2024-03-05T02:00:31.484Z,1306.2620
2024-03-05T02:00:42.530Z,1307.5420
2024-03-05T02:00:53.594Z,1306.2620
2024-03-05T02:01:04.627Z,1303.7111
2024-03-05T02:01:15.761Z,1304.9850
2024-03-05T02:01:26.886Z,1307.5420
2024-03-05T02:01:38.020Z,1301.1700
2024-03-05T02:01:49.137Z,1304.9850
2024-03-05T02:02:00.303Z,1291.1030
2024-03-05T02:02:11.596Z,1301.1700
2024-03-05T02:02:22.767Z,1303.7111
2024-03-05T02:02:33.820Z,1301.1700
2024-03-05T02:02:44.856Z,1302.4390
2024-03-05T02:02:55.881Z,1306.2620
2024-03-05T02:03:06.998Z,1306.2620
2024-03-05T02:03:18.088Z,1303.7111
2024-03-05T02:03:29.143Z,1301.1700
2024-03-05T02:03:40.186Z,1292.3521
2024-03-05T02:03:51.234Z,1304.9850
2024-03-05T02:04:02.254Z,1312.6840
2024-03-05T02:04:13.382Z,1301.1700
2024-03-05T02:04:24.554Z,1304.9850
2024-03-05T02:04:35.866Z,1310.1080
2024-03-05T02:04:46.924Z,1303.7111
2024-03-05T02:04:58.011Z,1303.7111
2024-03-05T02:05:09.032Z,1302.4390
2024-03-05T02:05:20.085Z,1297.3760
2024-03-05T02:05:31.142Z,1310.1080
2024-03-05T02:05:42.171Z,1308.8240
2024-03-05T02:05:53.242Z,1302.4390
2024-03-05T02:06:04.286Z,1310.1080
2024-03-05T02:06:15.310Z,1311.3950
2024-03-05T02:06:26.377Z,1304.9850
2024-03-05T02:06:37.427Z,1303.7111
2024-03-05T02:06:48.513Z,1306.2620